Weather History for Heber, UT

Change the Weather History Date:

Friday, May 4, 2012

  Actual Average (KPVU) Record (KPVU)
Temperature  
Mean Temperature 53 °F -  
Max Temperature 69 °F 64 °F 86 °F (2000)
Min Temperature 37 °F 40 °F 35 °F (1991)
Degree Days  
Heating Degree Days 12    
Growing Degree Days 3 (Base 50)    
Moisture  
Dew Point 32 °F    
Average Humidity 44    
Maximum Humidity 81    
Minimum Humidity 18    
Precipitation  
Precipitation 0.00 in - - ()
Sea Level Pressure  
Sea Level Pressure 29.94 in    
Wind  
Wind Speed 7 mph (SW)    
Max Wind Speed 23 mph    
Max Gust Speed 36 mph    
Visibility 10 miles    
Events      
Averages and records for this station are not official NWS values.
T = Trace of Precipitation, MM = Missing Value Source: NWS Daily Summary

Daily Weather History Graph

Daily Weather History Graph

Search for Another Location

Airport:

Trip Planner

Search our weather history database for the weather conditions in past years. The results will help you decide how hot, cold, wet, or windy it might be!

Date:

Astronomy

May. 04, 2012 Rise Set
Actual Time 6:20 AM MDT 8:25 PM MDT
Civil Twilight 5:50 AM MDT 8:55 PM MDT
Nautical Twilight 5:13 AM MDT 9:31 PM MDT
Astronomical Twilight 4:34 AM MDT 10:11 PM MDT
Moon 7:07 PM MDT (5/4) 5:04 AM MDT (5/4)
Length of Visible Light 15h 04m
Length of Day
14h 04m
Waxing Gibbous, 97% of the Moon is Illuminated
May 4
Waxing Gibbous
May 5
Full
May 12
Last Quarter
May 20
New
May 28
First Quarter

Hourly Weather History & Observations

Time (MDT) Temp. Windchill Dew Point Humidity Pressure Visibility Wind Dir Wind Speed Gust Speed Precip Events Conditions
12:15 AM 53.6 °F - 33.8 °F 47% 29.89 in 10.0 mi Calm Calm - N/A   Mostly Cloudy
12:35 AM 53.6 °F - 33.8 °F 47% 29.90 in 10.0 mi Calm Calm - N/A   Overcast
12:55 AM 53.6 °F - 32.0 °F 44% 29.91 in 10.0 mi Calm Calm - N/A   Overcast
1:15 AM 55.4 °F - 32.0 °F 41% 29.91 in 10.0 mi North 4.6 mph - N/A   Overcast
1:35 AM 53.6 °F - 32.0 °F 44% 29.91 in 10.0 mi North 9.2 mph - N/A   Overcast
1:55 AM 53.6 °F - 32.0 °F 44% 29.92 in 10.0 mi North 3.5 mph - N/A   Overcast
2:15 AM 53.6 °F - 32.0 °F 44% 29.92 in 10.0 mi East 5.8 mph - N/A   Overcast
2:35 AM 51.8 °F - 32.0 °F 47% 29.92 in 10.0 mi Calm Calm - N/A   Mostly Cloudy
2:55 AM 51.8 °F - 32.0 °F 47% 29.92 in 10.0 mi Calm Calm - N/A   Scattered Clouds
3:15 AM 50.0 °F - 32.0 °F 50% 29.92 in 10.0 mi North 3.5 mph - N/A   Clear
3:35 AM 48.2 °F - 33.8 °F 58% 29.92 in 10.0 mi SE 4.6 mph - N/A   Clear
3:55 AM 44.6 °F 42.2 °F 33.8 °F 66% 29.92 in 10.0 mi East 4.6 mph - N/A   Clear
4:15 AM 44.6 °F 40.2 °F 33.8 °F 66% 29.92 in 10.0 mi ENE 8.1 mph - N/A   Clear
4:35 AM 46.4 °F 43.5 °F 33.8 °F 62% 29.93 in 10.0 mi North 5.8 mph - N/A   Clear
4:55 AM 41.0 °F - 32.0 °F 70% 29.93 in 10.0 mi Calm Calm - N/A   Clear
5:15 AM 42.8 °F 40.1 °F 32.0 °F 66% 29.93 in 10.0 mi East 4.6 mph - N/A   Clear
5:35 AM 37.4 °F 34.9 °F 32.0 °F 81% 29.93 in 10.0 mi ENE 3.5 mph - N/A   Clear
5:55 AM 39.2 °F - 32.0 °F 75% 29.94 in 10.0 mi Calm Calm - N/A   Clear
6:15 AM 41.0 °F 37.1 °F 32.0 °F 70% 29.93 in 10.0 mi ENE 5.8 mph - N/A   Clear
6:35 AM 37.4 °F 33.8 °F 32.0 °F 81% 29.95 in 10.0 mi ENE 4.6 mph - N/A   Clear
6:55 AM 41.0 °F - 32.0 °F 70% 29.95 in 10.0 mi Calm Calm - N/A   Clear
7:15 AM 44.6 °F 42.2 °F 33.8 °F 66% 29.96 in 10.0 mi ENE 4.6 mph - N/A   Clear
7:35 AM 46.4 °F - 33.8 °F 62% 29.96 in 7.0 mi Calm Calm - N/A   Clear
7:55 AM 50.0 °F - 33.8 °F 54% 29.97 in 10.0 mi Calm Calm - N/A   Clear
8:15 AM 46.4 °F - 35.6 °F 66% 29.98 in 7.0 mi Calm Calm - N/A   Clear
8:35 AM 48.2 °F - 35.6 °F 62% 29.98 in 10.0 mi ESE 3.5 mph - N/A   Clear
8:55 AM 51.8 °F - 35.6 °F 54% 29.98 in 10.0 mi NE 4.6 mph - N/A   Clear
9:15 AM 55.4 °F - 33.8 °F 44% 29.98 in 10.0 mi Calm Calm - N/A   Clear
9:35 AM 59.0 °F - 32.0 °F 36% 29.97 in 10.0 mi WSW 16.1 mph - N/A   Clear
9:55 AM 60.8 °F - 32.0 °F 34% 29.98 in 10.0 mi WSW 16.1 mph - N/A   Clear
10:15 AM 62.6 °F - 32.0 °F 32% 29.98 in 10.0 mi WSW 19.6 mph 24.2 mph N/A   Clear
10:35 AM 62.6 °F - 32.0 °F 32% 29.98 in 10.0 mi SW 21.9 mph 26.5 mph N/A   Clear
10:55 AM 62.6 °F - 30.2 °F 30% 29.98 in 10.0 mi SW 19.6 mph 26.5 mph N/A   Clear
11:15 AM 64.4 °F - 30.2 °F 28% 29.98 in 10.0 mi WSW 20.7 mph 26.5 mph N/A   Clear
11:35 AM 64.4 °F - 30.2 °F 28% 29.98 in 10.0 mi WSW 20.7 mph 29.9 mph N/A   Clear
11:55 AM 64.4 °F - 30.2 °F 28% 29.98 in 10.0 mi WSW 21.9 mph 32.2 mph N/A   Clear
12:15 PM 64.4 °F - 30.2 °F 28% 29.98 in 10.0 mi WSW 21.9 mph 26.5 mph N/A   Clear
12:35 PM 64.4 °F - 32.0 °F 30% 29.97 in 10.0 mi WSW 21.9 mph 31.1 mph N/A   Clear
12:55 PM 66.2 °F - 32.0 °F 28% 29.97 in 10.0 mi WSW 23.0 mph 28.8 mph N/A   Clear
1:15 PM 68.0 °F - 32.0 °F 26% 29.97 in 10.0 mi WSW 19.6 mph 25.3 mph N/A   Clear
1:35 PM 68.0 °F - 32.0 °F 26% 29.96 in 10.0 mi WSW 20.7 mph 26.5 mph N/A   Clear
1:55 PM 68.0 °F - 32.0 °F 26% 29.96 in 10.0 mi WSW 23.0 mph 27.6 mph N/A   Clear
2:15 PM 68.0 °F - 32.0 °F 26% 29.96 in 10.0 mi WSW 20.7 mph 25.3 mph N/A   Clear
2:35 PM 69.8 °F - 30.2 °F 23% 29.96 in 10.0 mi WSW 17.3 mph 26.5 mph N/A   Clear
2:55 PM 68.0 °F - 30.2 °F 24% 29.95 in 10.0 mi WSW 20.7 mph 28.8 mph N/A   Clear
3:15 PM 69.8 °F - 30.2 °F 23% 29.95 in 10.0 mi WSW 18.4 mph 26.5 mph N/A   Clear
3:35 PM 69.8 °F - 28.4 °F 21% 29.94 in 10.0 mi SW 19.6 mph 29.9 mph N/A   Clear
3:55 PM 69.8 °F - 28.4 °F 21% 29.94 in 10.0 mi WSW 19.6 mph 26.5 mph N/A   Clear
4:15 PM 69.8 °F - 28.4 °F 21% 29.93 in 10.0 mi SW 17.3 mph 25.3 mph N/A   Clear
4:35 PM 69.8 °F - 26.6 °F 20% 29.92 in 10.0 mi WSW 16.1 mph 35.7 mph N/A   Clear
4:55 PM 69.8 °F - 24.8 °F 18% 29.92 in 10.0 mi WSW 16.1 mph 29.9 mph N/A   Clear
5:15 PM 69.8 °F - 26.6 °F 20% 29.92 in 10.0 mi SW 20.7 mph 25.3 mph N/A   Clear
5:35 PM 69.8 °F - 26.6 °F 20% 29.92 in 10.0 mi SW 13.8 mph 24.2 mph N/A   Clear
6:15 PM 69.8 °F - 28.4 °F 21% 29.91 in 10.0 mi SW 9.2 mph - N/A   Clear
6:35 PM 68.0 °F - 30.2 °F 24% 29.91 in 10.0 mi SW 5.8 mph - N/A   Clear
6:55 PM 68.0 °F - 28.4 °F 23% 29.91 in 10.0 mi WSW 5.8 mph - N/A   Clear
7:15 PM 66.2 °F - 28.4 °F 24% 29.90 in 10.0 mi Calm Calm - N/A   Clear
7:35 PM 62.6 °F - 32.0 °F 32% 29.90 in 10.0 mi WSW 5.8 mph - N/A   Clear
7:55 PM 60.8 °F - 32.0 °F 34% 29.90 in 10.0 mi Calm Calm - N/A   Clear
8:15 PM 51.8 °F - 35.6 °F 54% 29.90 in 10.0 mi SSE 4.6 mph - N/A   Clear
8:35 PM 51.8 °F - 33.8 °F 50% 29.91 in 10.0 mi NNW 3.5 mph - N/A   Clear
8:55 PM 55.4 °F - 33.8 °F 44% 29.91 in 10.0 mi Calm Calm - N/A   Clear
9:15 PM 51.8 °F - 33.8 °F 50% 29.91 in 10.0 mi SW 4.6 mph - N/A   Clear
9:35 PM 48.2 °F - 32.0 °F 54% 29.92 in 10.0 mi SE 6.9 mph - N/A   Clear
9:55 PM 48.2 °F - 33.8 °F 58% 29.92 in 7.0 mi ESE 8.1 mph - N/A   Clear
10:15 PM 51.8 °F - 33.8 °F 50% 29.94 in 10.0 mi SE 4.6 mph - N/A   Clear
10:35 PM 48.2 °F - 32.0 °F 54% 29.94 in 10.0 mi East 3.5 mph - N/A   Clear
10:55 PM 46.4 °F 45.2 °F 32.0 °F 57% 29.94 in 10.0 mi ENE 3.5 mph - N/A   Clear
11:15 PM 42.8 °F 40.1 °F 33.8 °F 70% 29.93 in 10.0 mi East 4.6 mph - N/A   Scattered Clouds
11:35 PM 44.6 °F - 33.8 °F 66% 29.93 in 10.0 mi Calm Calm - N/A   Mostly Cloudy
11:55 PM 42.8 °F 40.1 °F 33.8 °F 70% 29.93 in 10.0 mi ESE 4.6 mph - N/A   Scattered Clouds